Terminal Aerodrome Forecast
Issued by NWS

Current Version | Previous Version | Text Only | Print | Product List | Glossary On
Versions: 1 2 3 4 5 6 7 8 9 10 11 12 13 14 15
064
FTUS44 KCRP 290542
TAFLRD
TAF
KLRD 290542Z 2906/3006 13012KT P6SM SCT025
     FM290900 15012KT P6SM BKN015
      TEMPO 2910/2912 BKN007
     FM291500 17010KT P6SM SCT035
     FM291800 31010KT P6SM SCT035
     FM292200 25010KT P6SM FEW250
     FM300400 36012G20KT P6SM SCT250=

USA.gov is the U.S. government's official web portal to all federal, state and local government web resources and services.